sensor_id;sensor_type;location;lat;lon;timestamp;temperature;humidity
13264;DHT22;6700;51.988;7.646;2022-08-03T08:09:00;30.70;99.90
13264;DHT22;6700;51.988;7.646;2022-08-03T08:11:48;31.10;99.90
13264;DHT22;6700;51.988;7.646;2022-08-03T08:14:21;31.00;99.90
13264;DHT22;6700;51.988;7.646;2022-08-03T08:17:03;30.90;99.90
13264;DHT22;6700;51.988;7.646;2022-08-03T08:20:28;30.70;99.90
13264;DHT22;6700;51.988;7.646;2022-08-03T08:23:28;30.30;99.90
13264;DHT22;6700;51.988;7.646;2022-08-03T08:26:11;30.00;99.90
13264;DHT22;6700;51.988;7.646;2022-08-03T08:28:39;29.70;99.90
13264;DHT22;6700;51.988;7.646;2022-08-03T08:31:06;29.50;99.90
13264;DHT22;6700;51.988;7.646;2022-08-03T08:33:33;29.20;99.90
13264;DHT22;6700;51.988;7.646;2022-08-03T08:36:21;29.10;99.90
13264;DHT22;6700;51.988;7.646;2022-08-03T08:38:49;29.00;99.90
13264;DHT22;6700;51.988;7.646;2022-08-03T08:41:16;28.90;99.90
13264;DHT22;6700;51.988;7.646;2022-08-03T08:43:43;28.80;99.90
13264;DHT22;6700;51.988;7.646;2022-08-03T08:46:12;28.80;99.90
13264;DHT22;6700;51.988;7.646;2022-08-03T08:49:00;28.80;99.90
13264;DHT22;6700;51.988;7.646;2022-08-03T08:51:33;28.70;99.90
13264;DHT22;6700;51.988;7.646;2022-08-03T08:54:23;28.50;99.90
13264;DHT22;6700;51.988;7.646;2022-08-03T08:56:52;28.50;99.90
13264;DHT22;6700;51.988;7.646;2022-08-03T08:59:23;28.50;99.90
13264;DHT22;6700;51.988;7.646;2022-08-03T09:01:55;28.40;99.90
13264;DHT22;6700;51.988;7.646;2022-08-03T09:04:23;28.50;99.90
13264;DHT22;6700;51.988;7.646;2022-08-03T09:06:51;28.50;99.90
13264;DHT22;6700;51.988;7.646;2022-08-03T09:09:38;28.50;99.90
13264;DHT22;6700;51.988;7.646;2022-08-03T09:12:25;28.40;99.90
13264;DHT22;6700;51.988;7.646;2022-08-03T09:17:46;28.30;99.90
13264;DHT22;6700;51.988;7.646;2022-08-03T09:20:18;28.40;99.90
13264;DHT22;6700;51.988;7.646;2022-08-03T09:25:27;28.20;99.90
13264;DHT22;6700;51.988;7.646;2022-08-03T09:27:55;28.30;99.90
13264;DHT22;6700;51.988;7.646;2022-08-03T09:30:29;28.30;99.90
13264;DHT22;6700;51.988;7.646;2022-08-03T09:33:05;28.30;99.90
13264;DHT22;6700;51.988;7.646;2022-08-03T09:35:45;28.40;99.90
13264;DHT22;6700;51.988;7.646;2022-08-03T09:38:23;28.50;99.90
13264;DHT22;6700;51.988;7.646;2022-08-03T09:40:53;28.60;99.90
13264;DHT22;6700;51.988;7.646;2022-08-03T09:43:25;28.80;99.90
13264;DHT22;6700;51.988;7.646;2022-08-03T09:46:02;28.70;99.90
13264;DHT22;6700;51.988;7.646;2022-08-03T09:48:30;28.50;99.90
13264;DHT22;6700;51.988;7.646;2022-08-03T09:51:01;28.40;99.90
13264;DHT22;6700;51.988;7.646;2022-08-03T09:53:46;28.20;99.90
13264;DHT22;6700;51.988;7.646;2022-08-03T09:56:40;28.00;99.90
13264;DHT22;6700;51.988;7.646;2022-08-03T09:59:08;28.00;99.90
13264;DHT22;6700;51.988;7.646;2022-08-03T10:01:37;28.00;99.90
13264;DHT22;6700;51.988;7.646;2022-08-03T10:04:15;28.00;99.90
13264;DHT22;6700;51.988;7.646;2022-08-03T10:06:44;27.90;99.90
13264;DHT22;6700;51.988;7.646;2022-08-03T10:09:14;27.90;99.90
13264;DHT22;6700;51.988;7.646;2022-08-03T10:11:43;27.90;99.90
13264;DHT22;6700;51.988;7.646;2022-08-03T10:14:12;27.80;99.90
13264;DHT22;6700;51.988;7.646;2022-08-03T10:16:46;27.80;99.90
13264;DHT22;6700;51.988;7.646;2022-08-03T10:19:14;27.70;99.90
13264;DHT22;6700;51.988;7.646;2022-08-03T10:21:54;27.80;99.90
13264;DHT22;6700;51.988;7.646;2022-08-03T10:24:24;27.70;99.90
13264;DHT22;6700;51.988;7.646;2022-08-03T10:27:00;27.80;99.90
13264;DHT22;6700;51.988;7.646;2022-08-03T10:29:36;27.80;99.90
13264;DHT22;6700;51.988;7.646;2022-08-03T10:32:12;28.20;99.90
13264;DHT22;6700;51.988;7.646;2022-08-03T10:34:41;28.50;99.90
13264;DHT22;6700;51.988;7.646;2022-08-03T10:37:11;28.60;99.90
13264;DHT22;6700;51.988;7.646;2022-08-03T10:39:43;28.90;99.90
13264;DHT22;6700;51.988;7.646;2022-08-03T10:42:23;29.10;99.90
13264;DHT22;6700;51.988;7.646;2022-08-03T10:45:06;29.40;99.90
13264;DHT22;6700;51.988;7.646;2022-08-03T10:47:35;29.50;99.90
13264;DHT22;6700;51.988;7.646;2022-08-03T10:50:03;29.40;99.90
13264;DHT22;6700;51.988;7.646;2022-08-03T10:52:31;29.40;99.90
13264;DHT22;6700;51.988;7.646;2022-08-03T14:38:06;30.10;99.90
13264;DHT22;6700;51.988;7.646;2022-08-03T14:40:33;30.00;99.90
13264;DHT22;6700;51.988;7.646;2022-08-03T14:43:00;29.80;99.90
13264;DHT22;6700;51.988;7.646;2022-08-03T14:45:28;29.70;99.90
13264;DHT22;6700;51.988;7.646;2022-08-03T14:47:55;29.50;99.90
13264;DHT22;6700;51.988;7.646;2022-08-03T14:50:42;29.60;99.90
13264;DHT22;6700;51.988;7.646;2022-08-03T14:53:16;29.60;99.90
13264;DHT22;6700;51.988;7.646;2022-08-03T14:55:43;29.60;99.90
13264;DHT22;6700;51.988;7.646;2022-08-03T14:58:23;29.70;99.90
13264;DHT22;6700;51.988;7.646;2022-08-03T15:00:54;29.60;99.90
13264;DHT22;6700;51.988;7.646;2022-08-03T15:03:22;29.50;99.90
13264;DHT22;6700;51.988;7.646;2022-08-03T15:05:52;29.50;99.90
13264;DHT22;6700;51.988;7.646;2022-08-03T15:08:20;29.40;99.90
13264;DHT22;6700;51.988;7.646;2022-08-03T15:10:47;29.40;99.90
13264;DHT22;6700;51.988;7.646;2022-08-03T15:13:16;29.30;99.90
13264;DHT22;6700;51.988;7.646;2022-08-03T15:15:43;29.20;99.90
13264;DHT22;6700;51.988;7.646;2022-08-03T15:18:10;29.20;99.90
13264;DHT22;6700;51.988;7.646;2022-08-03T15:20:37;29.10;99.90
13264;DHT22;6700;51.988;7.646;2022-08-03T15:23:12;29.10;99.90
13264;DHT22;6700;51.988;7.646;2022-08-03T15:25:39;29.00;99.90
13264;DHT22;6700;51.988;7.646;2022-08-03T15:28:26;29.10;99.90
13264;DHT22;6700;51.988;7.646;2022-08-03T15:30:54;29.20;99.90
13264;DHT22;6700;51.988;7.646;2022-08-03T15:33:21;29.20;99.90
13264;DHT22;6700;51.988;7.646;2022-08-03T15:35:48;29.20;99.90
13264;DHT22;6700;51.988;7.646;2022-08-03T15:38:15;29.10;99.90
13264;DHT22;6700;51.988;7.646;2022-08-03T15:40:42;29.10;99.90
13264;DHT22;6700;51.988;7.646;2022-08-03T15:43:09;29.00;99.90
13264;DHT22;6700;51.988;7.646;2022-08-03T15:45:36;28.90;99.90
13264;DHT22;6700;51.988;7.646;2022-08-03T15:48:04;29.00;99.90
13264;DHT22;6700;51.988;7.646;2022-08-03T15:50:31;28.90;99.90
13264;DHT22;6700;51.988;7.646;2022-08-03T15:52:58;28.90;99.90
13264;DHT22;6700;51.988;7.646;2022-08-03T15:55:25;28.90;99.90
13264;DHT22;6700;51.988;7.646;2022-08-03T15:57:52;28.90;99.90
13264;DHT22;6700;51.988;7.646;2022-08-03T16:00:41;28.80;99.90
13264;DHT22;6700;51.988;7.646;2022-08-03T16:03:09;28.90;99.90
13264;DHT22;6700;51.988;7.646;2022-08-03T16:05:36;28.80;99.90
13264;DHT22;6700;51.988;7.646;2022-08-03T16:08:03;28.80;99.90
13264;DHT22;6700;51.988;7.646;2022-08-03T16:10:35;28.80;99.90
13264;DHT22;6700;51.988;7.646;2022-08-03T16:13:02;28.80;99.90
13264;DHT22;6700;51.988;7.646;2022-08-03T16:15:29;28.80;99.90
13264;DHT22;6700;51.988;7.646;2022-08-03T16:17:56;28.80;99.90
13264;DHT22;6700;51.988;7.646;2022-08-03T16:20:24;28.80;99.90
13264;DHT22;6700;51.988;7.646;2022-08-03T16:23:01;28.80;99.90
13264;DHT22;6700;51.988;7.646;2022-08-03T16:25:38;28.80;99.90
13264;DHT22;6700;51.988;7.646;2022-08-03T16:28:06;28.80;99.90
13264;DHT22;6700;51.988;7.646;2022-08-03T16:30:40;28.80;99.90
13264;DHT22;6700;51.988;7.646;2022-08-03T16:33:08;28.70;99.90
13264;DHT22;6700;51.988;7.646;2022-08-03T16:35:36;28.70;99.90
13264;DHT22;6700;51.988;7.646;2022-08-03T16:38:04;28.60;99.90
13264;DHT22;6700;51.988;7.646;2022-08-03T16:40:36;28.60;99.90
13264;DHT22;6700;51.988;7.646;2022-08-03T16:43:13;28.70;99.90
13264;DHT22;6700;51.988;7.646;2022-08-03T16:45:45;28.60;99.90
13264;DHT22;6700;51.988;7.646;2022-08-03T16:48:14;28.70;99.90
13264;DHT22;6700;51.988;7.646;2022-08-03T16:50:41;28.70;99.90
13264;DHT22;6700;51.988;7.646;2022-08-03T16:53:09;28.60;99.90
13264;DHT22;6700;51.988;7.646;2022-08-03T16:55:43;28.50;99.90
13264;DHT22;6700;51.988;7.646;2022-08-03T16:58:23;28.50;99.90
13264;DHT22;6700;51.988;7.646;2022-08-03T17:01:12;28.50;99.90
13264;DHT22;6700;51.988;7.646;2022-08-03T17:03:52;28.50;99.90
13264;DHT22;6700;51.988;7.646;2022-08-03T17:06:28;28.50;99.90
13264;DHT22;6700;51.988;7.646;2022-08-03T17:09:01;28.60;99.90
13264;DHT22;6700;51.988;7.646;2022-08-03T17:11:29;28.50;99.90
13264;DHT22;6700;51.988;7.646;2022-08-03T17:14:00;28.60;99.90
13264;DHT22;6700;51.988;7.646;2022-08-03T17:16:29;28.70;99.90
13264;DHT22;6700;51.988;7.646;2022-08-03T17:18:58;28.50;99.90
13264;DHT22;6700;51.988;7.646;2022-08-03T17:21:31;28.50;99.90
13264;DHT22;6700;51.988;7.646;2022-08-03T17:27:02;28.40;99.90
13264;DHT22;6700;51.988;7.646;2022-08-03T17:29:37;28.20;99.90
13264;DHT22;6700;51.988;7.646;2022-08-03T17:32:13;28.10;99.90
13264;DHT22;6700;51.988;7.646;2022-08-03T17:34:48;28.10;99.90
13264;DHT22;6700;51.988;7.646;2022-08-03T17:37:15;28.00;99.90
13264;DHT22;6700;51.988;7.646;2022-08-03T17:40:02;27.90;99.90
13264;DHT22;6700;51.988;7.646;2022-08-03T17:42:30;27.90;99.90
13264;DHT22;6700;51.988;7.646;2022-08-03T17:45:00;27.90;99.90
13264;DHT22;6700;51.988;7.646;2022-08-03T17:47:33;27.70;99.90
13264;DHT22;6700;51.988;7.646;2022-08-03T17:50:10;27.80;99.90
13264;DHT22;6700;51.988;7.646;2022-08-03T17:52:57;27.60;99.90
13264;DHT22;6700;51.988;7.646;2022-08-03T17:55:27;27.50;99.90
13264;DHT22;6700;51.988;7.646;2022-08-03T18:01:23;27.60;99.90
13264;DHT22;6700;51.988;7.646;2022-08-03T18:04:32;27.60;99.90
13264;DHT22;6700;51.988;7.646;2022-08-03T18:12:26;27.60;99.90
13264;DHT22;6700;51.988;7.646;2022-08-03T18:14:59;27.50;99.90
13264;DHT22;6700;51.988;7.646;2022-08-03T18:17:36;27.30;99.90
13264;DHT22;6700;51.988;7.646;2022-08-03T18:20:25;27.30;99.90
13264;DHT22;6700;51.988;7.646;2022-08-03T18:23:07;27.10;99.90
13264;DHT22;6700;51.988;7.646;2022-08-03T18:25:35;27.10;99.90
13264;DHT22;6700;51.988;7.646;2022-08-03T18:28:15;26.90;99.90
13264;DHT22;6700;51.988;7.646;2022-08-03T18:30:45;26.80;99.90
13264;DHT22;6700;51.988;7.646;2022-08-03T18:33:21;26.70;99.90
13264;DHT22;6700;51.988;7.646;2022-08-03T18:36:10;26.60;99.90
13264;DHT22;6700;51.988;7.646;2022-08-03T18:38:44;26.70;99.90
13264;DHT22;6700;51.988;7.646;2022-08-03T18:41:13;26.40;99.90
13264;DHT22;6700;51.988;7.646;2022-08-03T18:43:58;26.30;99.90
13264;DHT22;6700;51.988;7.646;2022-08-03T18:52:05;26.00;99.90
13264;DHT22;6700;51.988;7.646;2022-08-03T18:54:58;25.90;99.90
13264;DHT22;6700;51.988;7.646;2022-08-03T19:01:00;25.40;99.90
13264;DHT22;6700;51.988;7.646;2022-08-03T19:03:46;25.60;99.90
13264;DHT22;6700;51.988;7.646;2022-08-03T19:06:22;25.30;99.90
13264;DHT22;6700;51.988;7.646;2022-08-03T19:09:03;25.10;99.90
13264;DHT22;6700;51.988;7.646;2022-08-03T19:11:40;25.20;99.90
13264;DHT22;6700;51.988;7.646;2022-08-03T19:14:39;25.10;99.90
13264;DHT22;6700;51.988;7.646;2022-08-03T19:17:09;25.00;99.90
13264;DHT22;6700;51.988;7.646;2022-08-03T19:19:48;24.70;99.90
13264;DHT22;6700;51.988;7.646;2022-08-03T19:22:17;24.90;99.90
13264;DHT22;6700;51.988;7.646;2022-08-03T19:24:50;24.70;99.90
13264;DHT22;6700;51.988;7.646;2022-08-03T19:27:20;24.70;99.90
13264;DHT22;6700;51.988;7.646;2022-08-03T19:29:57;24.40;99.90
13264;DHT22;6700;51.988;7.646;2022-08-03T19:32:31;24.40;99.90
13264;DHT22;6700;51.988;7.646;2022-08-03T19:34:59;24.40;99.90
13264;DHT22;6700;51.988;7.646;2022-08-03T19:37:28;24.40;99.90
13264;DHT22;6700;51.988;7.646;2022-08-03T19:40:08;24.20;99.90
13264;DHT22;6700;51.988;7.646;2022-08-03T19:42:39;23.90;99.90
13264;DHT22;6700;51.988;7.646;2022-08-03T19:45:10;24.20;99.90
13264;DHT22;6700;51.988;7.646;2022-08-03T19:48:00;24.10;99.90
13264;DHT22;6700;51.988;7.646;2022-08-03T19:50:36;23.90;99.90
13264;DHT22;6700;51.988;7.646;2022-08-03T19:53:11;23.90;99.90
13264;DHT22;6700;51.988;7.646;2022-08-03T19:55:40;23.70;99.90
13264;DHT22;6700;51.988;7.646;2022-08-03T19:58:15;23.70;99.90
13264;DHT22;6700;51.988;7.646;2022-08-03T20:00:54;23.70;99.90
13264;DHT22;6700;51.988;7.646;2022-08-03T20:03:21;23.70;99.90
13264;DHT22;6700;51.988;7.646;2022-08-03T20:05:52;23.50;99.90
13264;DHT22;6700;51.988;7.646;2022-08-03T20:08:21;23.40;99.90
13264;DHT22;6700;51.988;7.646;2022-08-03T20:10:48;23.40;99.90
13264;DHT22;6700;51.988;7.646;2022-08-03T20:13:18;23.30;99.90
13264;DHT22;6700;51.988;7.646;2022-08-03T20:15:45;23.20;99.90
13264;DHT22;6700;51.988;7.646;2022-08-03T20:18:12;23.20;99.90
13264;DHT22;6700;51.988;7.646;2022-08-03T20:20:45;23.20;99.90
13264;DHT22;6700;51.988;7.646;2022-08-03T20:23:16;23.10;99.90
13264;DHT22;6700;51.988;7.646;2022-08-03T20:25:54;23.20;99.90
13264;DHT22;6700;51.988;7.646;2022-08-03T20:28:41;23.20;99.90
13264;DHT22;6700;51.988;7.646;2022-08-03T20:31:18;23.10;99.90
13264;DHT22;6700;51.988;7.646;2022-08-03T20:33:49;22.90;99.90
13264;DHT22;6700;51.988;7.646;2022-08-03T20:36:17;23.20;99.90
13264;DHT22;6700;51.988;7.646;2022-08-03T20:38:45;23.00;99.90
13264;DHT22;6700;51.988;7.646;2022-08-03T20:41:14;22.90;99.90
13264;DHT22;6700;51.988;7.646;2022-08-03T20:43:42;23.00;99.90
13264;DHT22;6700;51.988;7.646;2022-08-03T20:46:09;22.90;99.90
13264;DHT22;6700;51.988;7.646;2022-08-03T20:48:57;22.70;99.90
13264;DHT22;6700;51.988;7.646;2022-08-03T20:51:25;22.80;99.90
13264;DHT22;6700;51.988;7.646;2022-08-03T20:54:14;22.70;99.90
13264;DHT22;6700;51.988;7.646;2022-08-03T20:56:56;22.80;99.90
13264;DHT22;6700;51.988;7.646;2022-08-03T20:59:23;22.60;99.90
13264;DHT22;6700;51.988;7.646;2022-08-03T21:02:17;22.60;99.90
13264;DHT22;6700;51.988;7.646;2022-08-03T21:04:56;22.60;99.90
13264;DHT22;6700;51.988;7.646;2022-08-03T21:07:25;22.70;99.90
13264;DHT22;6700;51.988;7.646;2022-08-03T21:10:15;22.60;99.90
13264;DHT22;6700;51.988;7.646;2022-08-03T21:15:46;22.60;99.90
13264;DHT22;6700;51.988;7.646;2022-08-03T21:18:36;22.30;99.90
13264;DHT22;6700;51.988;7.646;2022-08-03T21:21:05;22.50;99.90
13264;DHT22;6700;51.988;7.646;2022-08-03T21:23:34;22.50;99.90
13264;DHT22;6700;51.988;7.646;2022-08-03T21:26:16;22.20;99.90
13264;DHT22;6700;51.988;7.646;2022-08-03T21:28:46;22.30;99.90
13264;DHT22;6700;51.988;7.646;2022-08-03T21:31:14;22.40;99.90
13264;DHT22;6700;51.988;7.646;2022-08-03T21:33:56;22.20;99.90
13264;DHT22;6700;51.988;7.646;2022-08-03T21:36:25;22.30;99.90
13264;DHT22;6700;51.988;7.646;2022-08-03T21:38:54;22.10;99.90
13264;DHT22;6700;51.988;7.646;2022-08-03T21:41:25;22.10;99.90
13264;DHT22;6700;51.988;7.646;2022-08-03T21:43:52;22.00;99.90
13264;DHT22;6700;51.988;7.646;2022-08-03T21:46:21;22.00;99.90
13264;DHT22;6700;51.988;7.646;2022-08-03T21:48:57;22.00;99.90
13264;DHT22;6700;51.988;7.646;2022-08-03T21:51:48;22.10;99.90
13264;DHT22;6700;51.988;7.646;2022-08-03T21:54:15;22.00;99.90
13264;DHT22;6700;51.988;7.646;2022-08-03T21:56:46;22.00;99.90
13264;DHT22;6700;51.988;7.646;2022-08-03T21:59:18;21.90;99.90
13264;DHT22;6700;51.988;7.646;2022-08-03T22:01:50;21.90;99.90
13264;DHT22;6700;51.988;7.646;2022-08-03T22:04:24;21.70;99.90
13264;DHT22;6700;51.988;7.646;2022-08-03T22:07:12;21.80;99.90
13264;DHT22;6700;51.988;7.646;2022-08-03T22:09:39;21.90;99.90
13264;DHT22;6700;51.988;7.646;2022-08-03T22:12:21;21.80;99.90
13264;DHT22;6700;51.988;7.646;2022-08-03T22:14:50;21.70;99.90
13264;DHT22;6700;51.988;7.646;2022-08-03T22:17:29;21.60;99.90
13264;DHT22;6700;51.988;7.646;2022-08-03T22:20:17;21.70;99.90
13264;DHT22;6700;51.988;7.646;2022-08-03T22:22:45;21.60;99.90
13264;DHT22;6700;51.988;7.646;2022-08-03T22:25:24;21.70;99.90
13264;DHT22;6700;51.988;7.646;2022-08-03T22:27:53;21.50;99.90
13264;DHT22;6700;51.988;7.646;2022-08-03T22:30:20;21.50;99.90
13264;DHT22;6700;51.988;7.646;2022-08-03T22:32:50;21.50;99.90
13264;DHT22;6700;51.988;7.646;2022-08-03T22:35:19;21.40;99.90
13264;DHT22;6700;51.988;7.646;2022-08-03T22:37:52;21.40;99.90
13264;DHT22;6700;51.988;7.646;2022-08-03T22:40:20;21.40;99.90
13264;DHT22;6700;51.988;7.646;2022-08-03T22:42:48;21.50;99.90
13264;DHT22;6700;51.988;7.646;2022-08-03T22:45:19;21.30;99.90
13264;DHT22;6700;51.988;7.646;2022-08-03T22:48:06;21.40;99.90
13264;DHT22;6700;51.988;7.646;2022-08-03T22:50:34;21.40;99.90
13264;DHT22;6700;51.988;7.646;2022-08-03T22:53:01;21.30;99.90
13264;DHT22;6700;51.988;7.646;2022-08-03T22:55:28;21.30;99.90
13264;DHT22;6700;51.988;7.646;2022-08-03T22:57:55;21.30;99.90
13264;DHT22;6700;51.988;7.646;2022-08-03T23:00:22;21.20;99.90
13264;DHT22;6700;51.988;7.646;2022-08-03T23:02:50;21.30;99.90
13264;DHT22;6700;51.988;7.646;2022-08-03T23:05:24;21.20;99.90
13264;DHT22;6700;51.988;7.646;2022-08-03T23:08:13;21.10;99.90
13264;DHT22;6700;51.988;7.646;2022-08-03T23:10:42;21.20;99.90
13264;DHT22;6700;51.988;7.646;2022-08-03T23:13:15;21.10;99.90
13264;DHT22;6700;51.988;7.646;2022-08-03T23:15:49;21.10;99.90
13264;DHT22;6700;51.988;7.646;2022-08-03T23:18:18;21.10;99.90
13264;DHT22;6700;51.988;7.646;2022-08-03T23:20:50;21.10;99.90
13264;DHT22;6700;51.988;7.646;2022-08-03T23:23:19;21.00;99.90
13264;DHT22;6700;51.988;7.646;2022-08-03T23:25:49;21.00;99.90
13264;DHT22;6700;51.988;7.646;2022-08-03T23:28:17;21.00;99.90
13264;DHT22;6700;51.988;7.646;2022-08-03T23:30:44;20.90;99.90
13264;DHT22;6700;51.988;7.646;2022-08-03T23:33:14;21.00;99.90
13264;DHT22;6700;51.988;7.646;2022-08-03T23:35:42;20.80;99.90
13264;DHT22;6700;51.988;7.646;2022-08-03T23:38:45;20.80;99.90
13264;DHT22;6700;51.988;7.646;2022-08-03T23:41:13;20.90;99.90
13264;DHT22;6700;51.988;7.646;2022-08-03T23:43:43;20.90;99.90
13264;DHT22;6700;51.988;7.646;2022-08-03T23:46:20;20.80;99.90
13264;DHT22;6700;51.988;7.646;2022-08-03T23:48:48;20.80;99.90
13264;DHT22;6700;51.988;7.646;2022-08-03T23:51:41;20.80;99.90
13264;DHT22;6700;51.988;7.646;2022-08-03T23:54:50;20.70;99.90
